Time;durP1;ratioP1;P1;durP2;ratioP2;P2;SDS_P1;SDS_P2;PMS_P1;PMS_P2;Temp;Humidity;BMP_temperature;BMP_pressure;BME280_temperature;BME280_humidity;BME280_pressure;Samples;Min_cycle;Max_cycle;Signal;HPM_P1;HPM_P2
2022/09/19 00:00:36;;;;;;;10.82;0.82;;;11.20;99.90;;;;;;4993828;28;20121;-71
2022/09/19 00:03:02;;;;;;;10.75;1.10;;;11.20;99.90;;;;;;4994276;28;20125;-71
2022/09/19 00:05:28;;;;;;;6.95;1.10;;;11.20;99.90;;;;;;4995153;28;20557;-69
2022/09/19 00:07:54;;;;;;;5.80;1.02;;;11.40;99.90;;;;;;4994574;28;20050;-69
2022/09/19 00:10:19;;;;;;;13.43;1.20;;;11.30;99.90;;;;;;4994879;28;20414;-70
2022/09/19 00:12:45;;;;;;;11.02;1.10;;;11.40;99.90;;;;;;4993928;28;20046;-70
2022/09/19 00:15:12;;;;;;;9.02;1.85;;;11.30;99.90;;;;;;4994004;28;20038;-70
2022/09/19 00:17:37;;;;;;;10.48;1.13;;;11.50;99.90;;;;;;4995297;28;20052;-70
2022/09/19 00:20:04;;;;;;;7.65;1.05;;;11.40;99.90;;;;;;4995861;28;20046;-70
2022/09/19 00:22:30;;;;;;;9.88;1.10;;;11.30;99.90;;;;;;4995021;28;20050;-72
2022/09/19 00:24:56;;;;;;;11.15;1.10;;;11.30;99.90;;;;;;4994933;28;20069;-71
2022/09/19 00:27:25;;;;;;;10.52;1.13;;;11.10;99.90;;;;;;4995067;28;20061;-70
2022/09/19 00:29:52;;;;;;;10.05;1.30;;;11.30;99.90;;;;;;4993893;28;20077;-70
2022/09/19 00:32:18;;;;;;;10.00;1.30;;;11.40;99.90;;;;;;4993841;28;20054;-70
2022/09/19 00:34:47;;;;;;;13.13;1.38;;;11.30;99.90;;;;;;4994551;28;20046;-70
2022/09/19 00:37:15;;;;;;;10.52;1.00;;;11.40;99.90;;;;;;4995125;28;20121;-70
2022/09/19 00:39:41;;;;;;;8.25;0.98;;;11.40;99.90;;;;;;4994632;28;20121;-70
2022/09/19 00:42:22;;;;;;;7.78;1.13;;;11.40;99.90;;;;;;4993386;28;20121;-69
2022/09/19 00:44:54;;;;;;;9.27;0.93;;;11.30;99.90;;;;;;4995944;28;20121;-70
2022/09/19 00:47:24;;;;;;;6.50;0.90;;;11.40;99.90;;;;;;4996576;28;20118;-69
2022/09/19 00:49:54;;;;;;;6.45;1.23;;;11.30;99.90;;;;;;4995613;28;20091;-69
2022/09/19 00:52:58;;;;;;;5.70;0.77;;;11.40;99.90;;;;;;4995879;28;20058;-70
2022/09/19 00:55:24;;;;;;;5.55;0.77;;;11.30;99.90;;;;;;4955671;28;20050;-69
2022/09/19 00:58:05;;;;;;;5.95;0.60;;;11.30;99.90;;;;;;4995373;28;20046;-69
2022/09/19 01:00:33;;;;;;;6.07;1.35;;;11.30;99.90;;;;;;4994553;28;20125;-69
2022/09/19 01:03:01;;;;;;;6.93;0.75;;;11.30;99.90;;;;;;4994371;28;20050;-70
2022/09/19 01:05:48;;;;;;;8.48;1.35;;;11.40;99.90;;;;;;4994803;28;20088;-69
2022/09/19 01:08:49;;;;;;;11.45;1.08;;;11.50;99.90;;;;;;4979074;28;20046;-69
2022/09/19 01:11:45;;;;;;;6.78;0.90;;;11.40;99.90;;;;;;4995026;28;20062;-69
2022/09/19 01:14:39;;;;;;;6.13;0.90;;;11.40;99.90;;;;;;4996221;28;20043;-69
2022/09/19 01:17:26;;;;;;;9.32;1.10;;;11.40;99.90;;;;;;4997696;28;20061;-69
2022/09/19 01:20:00;;;;;;;8.70;0.90;;;11.50;99.90;;;;;;4997804;28;20061;-69
2022/09/19 01:22:27;;;;;;;7.78;0.98;;;11.50;99.90;;;;;;4997687;28;20140;-70
2022/09/19 01:25:19;;;;;;;8.48;1.35;;;11.80;99.90;;;;;;4995623;28;20054;-69
2022/09/19 01:27:48;;;;;;;10.48;1.52;;;11.50;99.90;;;;;;4997408;28;20104;-69
2022/09/19 01:30:15;;;;;;;6.75;0.90;;;11.80;99.90;;;;;;4995549;28;20161;-70
2022/09/19 01:33:05;;;;;;;9.07;1.10;;;12.00;99.90;;;;;;4995077;28;20042;-69
2022/09/19 01:35:33;;;;;;;11.88;1.02;;;11.60;99.90;;;;;;4984729;28;20062;-69
2022/09/19 01:38:15;;;;;;;15.77;1.48;;;11.70;99.90;;;;;;4996482;28;20058;-69
2022/09/19 01:40:43;;;;;;;8.00;0.80;;;11.60;99.90;;;;;;4996445;28;20144;-69
2022/09/19 01:43:14;;;;;;;12.75;1.17;;;11.70;99.90;;;;;;4995130;28;20445;-69
2022/09/19 01:45:41;;;;;;;10.75;0.70;;;11.60;99.90;;;;;;4996862;28;20144;-70
2022/09/19 01:48:14;;;;;;;10.15;1.40;;;11.70;99.90;;;;;;4995021;28;20060;-69
2022/09/19 01:50:58;;;;;;;10.27;0.90;;;11.70;99.90;;;;;;4995070;28;20050;-69
2022/09/19 01:53:49;;;;;;;5.68;1.10;;;11.70;99.90;;;;;;4996145;28;20050;-69
2022/09/19 01:56:32;;;;;;;14.82;1.88;;;11.80;99.90;;;;;;4996198;28;20050;-69
2022/09/19 01:59:13;;;;;;;9.07;1.10;;;11.90;99.90;;;;;;4995314;28;20088;-68
2022/09/19 02:02:06;;;;;;;8.75;1.23;;;11.70;99.90;;;;;;4995184;28;20057;-69
2022/09/19 02:04:41;;;;;;;7.80;1.02;;;11.70;99.90;;;;;;4996159;28;20057;-69
2022/09/19 02:07:15;;;;;;;9.43;1.38;;;12.00;99.90;;;;;;4996345;28;20042;-68
2022/09/19 02:10:00;;;;;;;8.50;1.45;;;11.70;99.90;;;;;;4957640;28;1100465;-68
2022/09/19 02:12:30;;;;;;;14.80;1.85;;;11.70;99.90;;;;;;4997076;28;20061;-69
2022/09/19 02:15:00;;;;;;;12.18;1.25;;;11.70;99.90;;;;;;4996987;28;20038;-69
2022/09/19 02:17:33;;;;;;;9.02;1.20;;;11.70;99.90;;;;;;4996385;28;20556;-69
2022/09/19 02:20:09;;;;;;;15.10;1.15;;;11.80;99.90;;;;;;4997052;28;20054;-68
2022/09/19 02:22:43;;;;;;;14.07;1.60;;;11.80;99.90;;;;;;4996960;28;20089;-68
2022/09/19 02:25:16;;;;;;;6.43;1.33;;;11.70;99.90;;;;;;4996517;28;20485;-68
2022/09/19 02:27:54;;;;;;;9.73;1.20;;;12.00;99.90;;;;;;4997672;28;20109;-69
2022/09/19 02:30:20;;;;;;;9.45;1.17;;;12.10;99.90;;;;;;4997320;28;20093;-68
2022/09/19 02:32:48;;;;;;;9.48;1.25;;;11.80;99.90;;;;;;4995938;28;20100;-68
2022/09/19 02:35:38;;;;;;;8.60;0.95;;;11.80;99.90;;;;;;4996578;28;20042;-69
2022/09/19 02:38:23;;;;;;;5.63;0.85;;;11.80;99.90;;;;;;4985826;28;20066;-69
2022/09/19 02:41:17;;;;;;;8.95;1.90;;;11.90;99.90;;;;;;4996683;28;20047;-69
2022/09/19 02:43:54;;;;;;;8.73;1.35;;;11.80;99.90;;;;;;4996463;28;20114;-69
2022/09/19 02:46:33;;;;;;;11.20;1.13;;;11.80;99.90;;;;;;4997296;28;20175;-69
2022/09/19 02:49:08;;;;;;;8.50;1.00;;;12.00;99.90;;;;;;4995627;28;20069;-68
2022/09/19 02:52:04;;;;;;;10.07;1.10;;;12.00;99.90;;;;;;4996407;28;20137;-69
2022/09/19 02:54:33;;;;;;;8.30;0.98;;;11.90;99.90;;;;;;4980015;28;20076;-67
2022/09/19 02:57:06;;;;;;;7.50;1.00;;;11.90;99.90;;;;;;4996212;28;20043;-68
2022/09/19 02:59:35;;;;;;;12.10;0.90;;;12.00;99.90;;;;;;4995084;28;20053;-68
2022/09/19 03:02:06;;;;;;;11.70;1.70;;;11.90;99.90;;;;;;4996232;28;20050;-69
2022/09/19 03:04:39;;;;;;;5.90;0.90;;;12.00;99.90;;;;;;4996018;28;20065;-68
2022/09/19 03:07:25;;;;;;;9.68;1.13;;;11.90;99.90;;;;;;4995994;28;20065;-67
2022/09/19 03:09:58;;;;;;;11.18;1.38;;;11.90;99.90;;;;;;4996311;28;20043;-68
2022/09/19 03:12:29;;;;;;;;;;;12.10;99.90;;;;;;4980266;28;20090;-69
2022/09/19 03:14:58;;;;;;;11.10;1.30;;;12.00;99.90;;;;;;4996501;28;19921;-68
2022/09/19 03:17:40;;;;;;;8.82;1.45;;;11.90;99.90;;;;;;4995888;28;20053;-68
2022/09/19 03:20:11;;;;;;;7.00;1.00;;;11.80;99.90;;;;;;4995940;28;20038;-68
2022/09/19 03:22:40;;;;;;;6.05;1.00;;;11.90;99.90;;;;;;4995376;28;20140;-68
2022/09/19 03:25:08;;;;;;;10.63;1.23;;;11.80;99.90;;;;;;4995785;28;20129;-68
2022/09/19 03:27:36;;;;;;;9.20;1.25;;;11.90;99.90;;;;;;4995719;28;20052;-68
2022/09/19 03:30:13;;;;;;;7.57;0.95;;;11.80;99.90;;;;;;4995731;28;20125;-68
2022/09/19 03:32:41;;;;;;;8.52;1.10;;;11.80;99.90;;;;;;4996085;28;20046;-68
2022/09/19 03:35:08;;;;;;;11.00;1.05;;;11.80;99.90;;;;;;4994933;28;20493;-69
2022/09/19 03:37:34;;;;;;;9.05;1.00;;;11.70;99.90;;;;;;4995582;28;20085;-69
2022/09/19 03:40:01;;;;;;;6.00;0.90;;;11.80;99.90;;;;;;4994143;28;20061;-68
2022/09/19 03:42:27;;;;;;;9.10;1.10;;;11.80;99.90;;;;;;4995141;28;20058;-68
2022/09/19 03:44:53;;;;;;;7.22;0.90;;;11.80;99.90;;;;;;4995266;28;20053;-68
2022/09/19 03:47:21;;;;;;;8.98;0.98;;;11.80;99.90;;;;;;4995369;28;20073;-69
2022/09/19 03:49:50;;;;;;;8.25;1.30;;;11.80;99.90;;;;;;4994355;28;20050;-68
2022/09/19 03:52:20;;;;;;;11.30;1.50;;;11.70;99.90;;;;;;4994232;28;20104;-69
2022/09/19 03:54:45;;;;;;;8.85;0.98;;;11.80;99.90;;;;;;4995093;28;20046;-68
2022/09/19 03:57:12;;;;;;;5.65;1.00;;;12.00;99.90;;;;;;4995143;28;20057;-69
2022/09/19 03:59:39;;;;;;;6.93;0.80;;;12.00;99.90;;;;;;4995695;28;20046;-69
2022/09/19 04:02:06;;;;;;;8.95;1.38;;;11.80;99.90;;;;;;4995560;28;20050;-68
2022/09/19 04:04:32;;;;;;;9.18;1.00;;;11.80;99.90;;;;;;4994932;28;20054;-68
2022/09/19 04:06:58;;;;;;;7.78;1.00;;;11.70;99.90;;;;;;4993915;28;20050;-68
2022/09/19 04:09:25;;;;;;;8.82;1.00;;;11.90;99.90;;;;;;4993762;28;20065;-68
2022/09/19 04:11:51;;;;;;;7.38;1.05;;;12.10;99.90;;;;;;4995452;28;20057;-69
2022/09/19 04:14:17;;;;;;;7.50;0.93;;;11.90;99.90;;;;;;4994803;28;20054;-69
2022/09/19 04:16:43;;;;;;;9.38;1.70;;;11.90;99.90;;;;;;4994687;28;20064;-68
2022/09/19 04:19:12;;;;;;;8.05;1.75;;;12.00;99.90;;;;;;4978326;28;20042;-68
2022/09/19 04:21:42;;;;;;;7.13;0.90;;;11.90;99.90;;;;;;4994798;28;20525;-68
2022/09/19 04:24:13;;;;;;;9.15;1.45;;;12.10;99.90;;;;;;4994080;28;20053;-68
2022/09/19 04:26:43;;;;;;;7.75;1.10;;;11.90;99.90;;;;;;4994933;28;20130;-69
2022/09/19 04:29:09;;;;;;;7.65;1.10;;;11.80;99.90;;;;;;4978053;28;20058;-68
2022/09/19 04:31:38;;;;;;;10.80;1.17;;;12.30;99.90;;;;;;4994587;28;20084;-68
2022/09/19 04:34:09;;;;;;;12.32;1.55;;;11.90;99.90;;;;;;4993430;28;20077;-68
2022/09/19 04:36:35;;;;;;;8.90;1.40;;;12.10;99.90;;;;;;4994222;28;20049;-68
2022/09/19 04:39:04;;;;;;;7.97;1.00;;;12.00;99.90;;;;;;4995064;28;20046;-68
2022/09/19 04:41:38;;;;;;;8.13;0.70;;;12.30;99.90;;;;;;4995313;28;20129;-68
2022/09/19 04:44:06;;;;;;;3.70;0.75;;;11.90;99.90;;;;;;4977491;28;20050;-69
2022/09/19 04:46:33;;;;;;;8.60;0.98;;;12.40;99.90;;;;;;4994272;28;20046;-68
2022/09/19 04:48:59;;;;;;;8.35;1.20;;;11.90;99.90;;;;;;4993092;28;20086;-69
2022/09/19 04:51:27;;;;;;;6.45;0.80;;;12.00;99.90;;;;;;4994465;28;20125;-69
2022/09/19 04:53:54;;;;;;;6.50;0.68;;;11.90;99.90;;;;;;4994282;28;20126;-69
2022/09/19 04:56:20;;;;;;;7.25;0.85;;;12.20;99.90;;;;;;4993159;28;20053;-68
2022/09/19 04:58:46;;;;;;;6.70;1.05;;;12.20;99.90;;;;;;4994385;28;20056;-69
2022/09/19 05:01:14;;;;;;;7.72;1.02;;;11.90;99.90;;;;;;4994263;28;20085;-69
2022/09/19 05:03:43;;;;;;;5.32;0.90;;;12.10;99.90;;;;;;4994250;28;20253;-69
2022/09/19 05:06:11;;;;;;;7.93;1.05;;;12.00;99.90;;;;;;4994225;28;20046;-70
2022/09/19 05:08:37;;;;;;;8.65;1.00;;;12.10;99.90;;;;;;4994090;28;20047;-68
2022/09/19 05:11:05;;;;;;;8.55;1.00;;;12.00;99.90;;;;;;4994890;28;20054;-68
2022/09/19 05:13:33;;;;;;;6.97;1.20;;;12.00;99.90;;;;;;4992928;28;20050;-68
2022/09/19 05:16:00;;;;;;;6.55;0.80;;;12.00;99.90;;;;;;4994091;28;20049;-68
2022/09/19 05:18:28;;;;;;;9.95;1.33;;;12.00;99.90;;;;;;4994131;28;20129;-68
2022/09/19 05:20:54;;;;;;;8.23;0.77;;;12.00;99.90;;;;;;4994054;28;20124;-68
2022/09/19 05:23:23;;;;;;;8.95;0.80;;;11.90;99.90;;;;;;4992863;28;20061;-68
2022/09/19 05:25:52;;;;;;;7.30;0.90;;;11.90;99.90;;;;;;4994026;28;20053;-69
2022/09/19 05:28:19;;;;;;;8.50;1.17;;;12.10;99.90;;;;;;4993178;28;20047;-69
2022/09/19 05:30:54;;;;;;;11.18;1.58;;;11.90;99.90;;;;;;4993968;28;20050;-68
2022/09/19 05:33:26;;;;;;;9.25;1.20;;;12.00;99.90;;;;;;4993291;28;20105;-69
2022/09/19 05:35:59;;;;;;;5.57;0.80;;;11.90;99.90;;;;;;4993638;28;20479;-68
2022/09/19 05:38:25;;;;;;;7.95;1.45;;;11.90;99.90;;;;;;4993846;28;20046;-68
2022/09/19 05:41:01;;;;;;;8.70;1.30;;;12.10;99.90;;;;;;4993808;28;20390;-68
2022/09/19 05:43:28;;;;;;;10.38;1.10;;;12.00;99.90;;;;;;4993165;28;20185;-68
2022/09/19 05:45:55;;;;;;;8.27;1.13;;;11.90;99.90;;;;;;4993804;28;20042;-68
2022/09/19 05:48:22;;;;;;;7.72;1.20;;;11.80;99.90;;;;;;4992545;28;20081;-68
2022/09/19 05:50:49;;;;;;;6.55;0.98;;;11.80;99.90;;;;;;4960929;28;20046;-68
2022/09/19 05:56:00;;;;;;;6.47;1.02;;;12.10;99.90;;;;;;4993287;28;20458;-68
2022/09/19 05:58:27;;;;;;;4.13;0.80;;;12.00;99.90;;;;;;4994145;28;20052;-68
2022/09/19 06:00:53;;;;;;;7.20;1.20;;;11.90;99.90;;;;;;4996491;28;20050;-68
2022/09/19 06:03:21;;;;;;;8.55;1.17;;;11.90;99.90;;;;;;4997378;28;20048;-68
2022/09/19 06:05:50;;;;;;;5.13;0.93;;;12.10;99.90;;;;;;4996238;28;20538;-68
2022/09/19 06:08:18;;;;;;;8.70;1.10;;;12.10;99.90;;;;;;4996305;28;20047;-68
2022/09/19 06:10:44;;;;;;;7.63;0.90;;;11.90;99.90;;;;;;4996553;28;20577;-69
2022/09/19 06:13:12;;;;;;;9.43;0.90;;;12.00;99.90;;;;;;4997897;28;20054;-68
2022/09/19 06:15:38;;;;;;;8.75;1.25;;;12.00;99.90;;;;;;4997053;28;20046;-68
2022/09/19 06:18:03;;;;;;;9.65;0.90;;;12.00;99.90;;;;;;4996659;28;20046;-69
2022/09/19 06:20:29;;;;;;;8.60;1.00;;;11.90;99.90;;;;;;4997062;28;20575;-68
2022/09/19 06:22:57;;;;;;;9.40;1.30;;;12.00;99.90;;;;;;4996961;28;20050;-68
2022/09/19 06:25:25;;;;;;;8.10;0.93;;;11.90;99.90;;;;;;4995722;28;20104;-68
2022/09/19 06:27:55;;;;;;;11.40;1.15;;;11.90;99.90;;;;;;4979785;28;20061;-68
2022/09/19 06:30:21;;;;;;;7.70;1.10;;;11.90;99.90;;;;;;4980493;28;20057;-68
2022/09/19 06:32:46;;;;;;;7.80;0.93;;;11.90;99.90;;;;;;4995514;28;20390;-68
2022/09/19 06:35:12;;;;;;;3.28;0.90;;;12.00;99.90;;;;;;4995677;28;20043;-69
2022/09/19 06:37:38;;;;;;;6.93;0.93;;;11.90;99.90;;;;;;4996671;28;20052;-69
2022/09/19 06:40:04;;;;;;;6.72;0.70;;;12.00;99.90;;;;;;4995419;28;20140;-69
2022/09/19 06:42:29;;;;;;;4.00;0.60;;;11.90;99.90;;;;;;4995836;28;20046;-68
2022/09/19 06:44:55;;;;;;;5.18;0.90;;;11.90;99.90;;;;;;4996378;28;20475;-68
2022/09/19 06:47:21;;;;;;;8.73;0.60;;;12.20;99.90;;;;;;4996376;28;20045;-68
2022/09/19 06:49:46;;;;;;;5.03;0.70;;;11.90;99.90;;;;;;4995280;28;20101;-69
2022/09/19 06:52:12;;;;;;;4.57;0.52;;;11.90;99.90;;;;;;4997011;28;20043;-68
2022/09/19 06:54:38;;;;;;;7.30;1.50;;;12.00;99.90;;;;;;4997011;28;20043;-69
2022/09/19 06:57:03;;;;;;;3.75;0.63;;;11.90;99.90;;;;;;4996276;28;20057;-70
2022/09/19 06:59:29;;;;;;;9.15;1.10;;;11.90;99.90;;;;;;4996585;28;20054;-68
2022/09/19 07:01:55;;;;;;;6.78;1.00;;;11.90;99.90;;;;;;4995165;28;20042;-67
2022/09/19 07:04:20;;;;;;;10.85;1.30;;;11.90;99.90;;;;;;4996403;28;20368;-68
2022/09/19 07:06:46;;;;;;;7.28;1.15;;;11.90;99.90;;;;;;4996622;28;20054;-68
2022/09/19 07:09:12;;;;;;;9.32;1.10;;;11.90;99.90;;;;;;4994597;28;20057;-68
2022/09/19 07:11:38;;;;;;;11.43;1.40;;;11.90;99.90;;;;;;4977449;28;20061;-68
2022/09/19 07:14:04;;;;;;;11.60;1.80;;;11.90;99.90;;;;;;4994824;28;20054;-68
2022/09/19 07:16:31;;;;;;;8.20;1.45;;;11.90;99.90;;;;;;4994890;28;20053;-68
2022/09/19 07:18:56;;;;;;;7.93;0.88;;;11.90;99.90;;;;;;4995604;28;20344;-68
2022/09/19 07:21:22;;;;;;;11.07;1.35;;;11.90;99.90;;;;;;4995854;28;20058;-68
2022/09/19 07:23:48;;;;;;;6.60;0.90;;;11.90;99.90;;;;;;4996948;28;20038;-68
2022/09/19 07:26:14;;;;;;;8.13;1.15;;;12.20;99.90;;;;;;4995428;28;20053;-69
2022/09/19 07:28:40;;;;;;;12.48;1.77;;;12.10;99.90;;;;;;4995419;28;20054;-68
2022/09/19 07:31:07;;;;;;;12.73;1.70;;;11.90;99.90;;;;;;4996237;28;20401;-67
2022/09/19 07:33:33;;;;;;;9.88;1.10;;;12.00;99.90;;;;;;4978539;28;20042;-70
2022/09/19 07:35:59;;;;;;;12.68;1.23;;;12.10;99.90;;;;;;4995693;28;20088;-69
2022/09/19 07:38:27;;;;;;;12.30;1.35;;;12.30;99.90;;;;;;4995708;28;20046;-69
2022/09/19 07:40:54;;;;;;;9.50;1.33;;;12.30;99.90;;;;;;4995255;28;20042;-70
2022/09/19 07:43:20;;;;;;;10.65;1.05;;;12.40;99.90;;;;;;4996071;28;20085;-70
2022/09/19 07:45:49;;;;;;;11.43;1.52;;;12.40;99.90;;;;;;4977919;28;20487;-70
2022/09/19 07:48:16;;;;;;;8.13;1.15;;;12.40;99.90;;;;;;4995721;28;20125;-71
2022/09/19 07:50:41;;;;;;;11.65;1.27;;;12.50;99.90;;;;;;4995990;28;20046;-70
2022/09/19 07:53:11;;;;;;;9.93;1.20;;;12.50;99.90;;;;;;4995322;28;20046;-69
2022/09/19 07:55:37;;;;;;;14.50;1.40;;;12.60;99.90;;;;;;4994011;28;20044;-68
2022/09/19 07:58:04;;;;;;;12.88;1.20;;;12.60;99.90;;;;;;4994129;28;20055;-69
2022/09/19 08:00:31;;;;;;;12.13;1.10;;;12.60;99.90;;;;;;4994801;28;20486;-69
2022/09/19 08:03:00;;;;;;;11.57;1.58;;;12.70;99.90;;;;;;4994875;28;20525;-68
2022/09/19 08:05:27;;;;;;;9.07;0.95;;;12.50;99.90;;;;;;4994860;28;20061;-69
2022/09/19 08:07:54;;;;;;;12.38;0.95;;;12.80;99.90;;;;;;4995159;28;20047;-69
2022/09/19 08:10:21;;;;;;;12.38;1.92;;;12.70;99.90;;;;;;4993846;28;20058;-69
2022/09/19 08:12:48;;;;;;;9.55;1.02;;;12.80;99.90;;;;;;4994336;28;20046;-69
2022/09/19 08:15:15;;;;;;;10.55;1.23;;;12.90;99.90;;;;;;4995790;28;20046;-70
2022/09/19 08:17:43;;;;;;;9.35;1.30;;;12.90;99.90;;;;;;4993715;28;20056;-69
2022/09/19 08:20:09;;;;;;;9.50;1.73;;;13.10;99.90;;;;;;4995213;28;20050;-70
2022/09/19 08:22:35;;;;;;;5.85;1.17;;;13.00;99.90;;;;;;4977222;28;20058;-70
2022/09/19 08:25:01;;;;;;;15.18;1.90;;;13.10;99.90;;;;;;4994871;28;20379;-69
2022/09/19 08:27:26;;;;;;;9.88;1.25;;;13.20;99.90;;;;;;4995080;28;20046;-71
2022/09/19 08:29:52;;;;;;;8.52;1.40;;;13.10;99.90;;;;;;4993425;28;20049;-70
2022/09/19 08:32:18;;;;;;;6.07;1.10;;;13.20;99.90;;;;;;4994442;28;20046;-70
2022/09/19 08:34:44;;;;;;;10.27;1.00;;;13.30;99.90;;;;;;4993464;28;20394;-70
2022/09/19 08:37:10;;;;;;;6.55;1.00;;;13.40;99.90;;;;;;4994292;28;20050;-69
2022/09/19 08:39:36;;;;;;;7.40;0.90;;;13.40;99.90;;;;;;4994447;28;20054;-69
2022/09/19 08:42:27;;;;;;;6.18;0.80;;;13.50;99.90;;;;;;4995069;28;20112;-69
2022/09/19 08:45:27;;;;;;;5.20;0.63;;;13.60;99.90;;;;;;4995108;28;20046;-69
2022/09/19 08:47:55;;;;;;;8.27;1.63;;;13.60;99.90;;;;;;4962563;28;20057;-70
2022/09/19 08:50:25;;;;;;;6.20;1.13;;;13.60;99.90;;;;;;4993163;28;20046;-69
2022/09/19 08:53:01;;;;;;;9.02;0.80;;;13.40;99.90;;;;;;4993781;28;20121;-71
2022/09/19 08:55:31;;;;;;;8.18;0.85;;;13.60;99.90;;;;;;4994442;28;20042;-70
2022/09/19 08:58:00;;;;;;;7.28;1.23;;;13.70;99.90;;;;;;4994570;28;20434;-71
2022/09/19 09:00:32;;;;;;;10.02;0.90;;;13.60;99.90;;;;;;4976585;28;20112;-70
2022/09/19 09:03:04;;;;;;;6.90;1.00;;;14.00;99.90;;;;;;4993174;28;20100;-71
2022/09/19 09:05:42;;;;;;;10.90;1.30;;;13.90;99.90;;;;;;4993218;28;20058;-71
2022/09/19 09:08:18;;;;;;;9.00;1.25;;;14.10;99.90;;;;;;4993534;28;20410;-72
2022/09/19 09:10:55;;;;;;;5.93;0.80;;;14.10;99.90;;;;;;4993992;28;20054;-71
2022/09/19 09:13:36;;;;;;;9.13;0.80;;;14.20;99.90;;;;;;4994335;28;20050;-71
2022/09/19 09:16:17;;;;;;;6.95;0.90;;;14.40;99.90;;;;;;4993881;28;20053;-71
2022/09/19 09:19:12;;;;;;;10.65;0.90;;;14.30;99.90;;;;;;4992700;28;20046;-71
2022/09/19 09:22:18;;;;;;;13.15;1.33;;;14.10;99.90;;;;;;4992742;28;20061;-72
2022/09/19 09:25:00;;;;;;;8.02;1.40;;;14.00;99.90;;;;;;4992902;28;20050;-71
2022/09/19 09:35:37;;;;;;;9.90;0.95;;;13.70;99.90;;;;;;5135090;22;20066;-69
2022/09/19 09:38:17;;;;;;;7.20;0.95;;;13.80;99.90;;;;;;4977952;28;20057;-71
2022/09/19 09:44:15;;;;;;;9.15;1.33;;;13.60;99.90;;;;;;4978416;28;20077;-67
2022/09/19 09:46:49;;;;;;;10.43;0.93;;;13.80;99.90;;;;;;4977819;28;20070;-70
2022/09/19 09:49:18;;;;;;;6.65;1.35;;;13.90;99.90;;;;;;4976523;28;20093;-69
2022/09/19 09:52:05;;;;;;;6.70;0.70;;;14.10;99.90;;;;;;4978465;28;20054;-69
2022/09/19 09:58:05;;;;;;;11.32;1.48;;;14.20;99.90;;;;;;4977241;28;20113;-69
2022/09/19 10:03:49;;;;;;;8.73;1.10;;;14.00;99.90;;;;;;4977470;28;20059;-68
2022/09/19 10:06:35;;;;;;;8.63;0.75;;;14.10;99.90;;;;;;4976340;28;20050;-70
2022/09/19 10:09:20;;;;;;;8.98;1.30;;;14.30;99.90;;;;;;4978196;28;20364;-70
2022/09/19 10:12:14;;;;;;;11.93;0.90;;;14.20;99.90;;;;;;4977194;28;20137;-69
2022/09/19 10:14:41;;;;;;;7.88;1.02;;;14.60;99.90;;;;;;4976120;28;20105;-69
2022/09/19 10:17:08;;;;;;;7.00;0.80;;;14.70;99.90;;;;;;4977138;28;20047;-69
2022/09/19 10:19:40;;;;;;;6.53;0.95;;;14.70;99.90;;;;;;4977110;28;20054;-69
2022/09/19 10:22:15;;;;;;;9.32;1.02;;;14.80;99.90;;;;;;4976806;28;20039;-68
2022/09/19 10:24:56;;;;;;;10.23;1.42;;;15.10;99.90;;;;;;4975987;28;20054;-68
2022/09/19 10:27:31;;;;;;;15.02;1.50;;;15.00;99.90;;;;;;4976896;28;20054;-67
2022/09/19 10:30:26;;;;;;;10.23;1.40;;;14.90;99.90;;;;;;4976906;28;20178;-69
2022/09/19 10:32:52;;;;;;;7.30;1.30;;;15.30;99.90;;;;;;4976019;28;20359;-68
2022/09/19 10:35:26;;;;;;;9.95;1.17;;;15.20;99.90;;;;;;4975065;28;20057;-68
2022/09/19 10:38:14;;;;;;;10.00;1.55;;;14.90;99.90;;;;;;4975879;28;20051;-69
2022/09/19 10:40:58;;;;;;;8.93;1.20;;;14.70;99.90;;;;;;4977419;28;20070;-68
2022/09/19 10:43:52;;;;;;;3.85;0.73;;;15.10;99.90;;;;;;4977052;28;20050;-67
2022/09/19 10:46:35;;;;;;;2.20;0.50;;;15.10;99.90;;;;;;4972080;28;20186;-68
2022/09/19 10:49:05;;;;;;;7.05;0.95;;;14.90;99.90;;;;;;4977101;28;20113;-69
2022/09/19 10:51:41;;;;;;;5.07;0.90;;;15.00;99.90;;;;;;4976231;28;20479;-68
2022/09/19 10:54:20;;;;;;;4.25;1.05;;;14.90;99.90;;;;;;4975698;28;20051;-69
2022/09/19 10:56:46;;;;;;;6.00;0.90;;;14.80;99.90;;;;;;4976537;28;20050;-68
2022/09/19 10:59:18;;;;;;;8.95;1.27;;;14.70;99.90;;;;;;4962744;28;20050;-68
2022/09/19 11:02:09;;;;;;;4.85;0.77;;;14.60;99.90;;;;;;4978498;28;20134;-69
2022/09/19 11:04:37;;;;;;;9.00;0.90;;;14.50;99.90;;;;;;4976047;28;20055;-69
2022/09/19 11:07:18;;;;;;;4.40;0.75;;;14.60;99.90;;;;;;4977215;28;20078;-68
2022/09/19 11:09:45;;;;;;;7.00;0.93;;;14.80;99.90;;;;;;4977639;28;20047;-70
2022/09/19 11:12:15;;;;;;;8.85;0.90;;;14.70;99.90;;;;;;4976718;28;20053;-68
2022/09/19 11:14:48;;;;;;;8.00;1.23;;;14.80;99.90;;;;;;4976279;28;20054;-68
2022/09/19 11:17:37;;;;;;;8.07;0.90;;;14.80;99.90;;;;;;4976023;28;20053;-70
2022/09/19 11:20:05;;;;;;;5.93;1.00;;;14.70;99.90;;;;;;4975893;28;20053;-68
2022/09/19 11:22:34;;;;;;;7.95;1.00;;;15.20;99.90;;;;;;4976912;28;20140;-68
2022/09/19 11:25:24;;;;;;;3.83;0.60;;;15.10;99.90;;;;;;4976740;28;20054;-68
2022/09/19 11:28:15;;;;;;;7.90;0.82;;;15.00;99.90;;;;;;4976690;28;20141;-68
2022/09/19 11:31:05;;;;;;;5.95;0.82;;;15.10;99.90;;;;;;4975161;28;20084;-68
2022/09/19 11:34:02;;;;;;;4.50;0.75;;;15.10;99.90;;;;;;4975032;28;20070;-68
2022/09/19 11:36:35;;;;;;;8.07;1.00;;;15.10;99.90;;;;;;4974570;28;20051;-68
2022/09/19 11:39:16;;;;;;;5.35;0.77;;;15.20;99.90;;;;;;4976338;28;20053;-68
2022/09/19 11:41:52;;;;;;;5.30;1.00;;;;;;;;;;4976202;28;20047;-69
2022/09/19 11:44:31;;;;;;;3.67;0.60;;;15.30;99.90;;;;;;4975697;28;20054;-68
2022/09/19 11:47:41;;;;;;;5.55;0.70;;;15.30;99.90;;;;;;4975101;28;20047;-69
2022/09/19 11:50:56;;;;;;;6.28;1.00;;;15.50;99.90;;;;;;4916154;29;20045;-69
2022/09/19 11:53:23;;;;;;;7.10;0.73;;;15.60;99.90;;;;;;4954173;29;20055;-69
2022/09/19 11:56:11;;;;;;;6.68;1.05;;;15.40;99.90;;;;;;4921980;28;20047;-69
2022/09/19 11:58:52;;;;;;;4.95;0.60;;;15.40;99.90;;;;;;4962821;28;20083;-69
2022/09/19 12:01:42;;;;;;;4.70;0.80;;;15.60;99.90;;;;;;4974559;28;20078;-72
2022/09/19 12:04:33;;;;;;;6.80;0.73;;;15.60;99.90;;;;;;4976925;28;20046;-69
2022/09/19 12:07:18;;;;;;;5.35;0.60;;;15.60;99.90;;;;;;4974444;28;20042;-69
2022/09/19 12:10:12;;;;;;;4.18;0.60;;;15.80;99.90;;;;;;4975251;28;20043;-71
2022/09/19 12:12:43;;;;;;;6.35;1.13;;;15.50;99.90;;;;;;4953161;28;20086;-70
2022/09/19 12:15:22;;;;;;;5.53;0.60;;;15.70;99.90;;;;;;4975614;28;20108;-70
2022/09/19 12:18:22;;;;;;;6.03;0.80;;;15.80;99.90;;;;;;4958472;28;20047;-70
2022/09/19 12:20:53;;;;;;;6.47;0.70;;;15.70;99.90;;;;;;4964799;28;20464;-71
2022/09/19 12:26:22;;;;;;;5.38;0.70;;;15.90;99.90;;;;;;4974964;28;20046;-69
2022/09/19 12:28:54;;;;;;;6.07;0.98;;;16.00;99.90;;;;;;4975008;28;20057;-69
2022/09/19 12:31:27;;;;;;;5.15;0.90;;;15.80;99.90;;;;;;4975125;28;20047;-68
2022/09/19 12:34:10;;;;;;;10.30;0.95;;;15.90;99.90;;;;;;4974776;28;20055;-70
2022/09/19 12:36:52;;;;;;;6.95;0.90;;;16.00;99.90;;;;;;4974175;28;20081;-71
2022/09/19 12:39:37;;;;;;;13.00;1.25;;;16.10;99.90;;;;;;4974183;28;20047;-69
2022/09/19 12:42:10;;;;;;;11.10;1.55;;;16.00;99.90;;;;;;4973834;28;20054;-70
2022/09/19 12:44:52;;;;;;;7.38;0.75;;;16.20;99.90;;;;;;4973551;28;20046;-70
2022/09/19 12:47:38;;;;;;;7.18;1.15;;;16.00;99.90;;;;;;4973755;28;20550;-70
2022/09/19 12:50:20;;;;;;;8.80;0.90;;;15.90;99.90;;;;;;4973977;28;20053;-71
2022/09/19 12:53:24;;;;;;;4.75;0.85;;;15.90;99.90;;;;;;4973220;28;20479;-70
2022/09/19 12:55:56;;;;;;;6.90;0.80;;;15.70;99.90;;;;;;4925369;28;20062;-70
2022/09/19 12:58:32;;;;;;;5.97;0.70;;;16.00;99.90;;;;;;4975309;28;20053;-73
2022/09/19 13:01:37;;;;;;;5.90;0.80;;;15.80;99.90;;;;;;4974353;28;20042;-71
2022/09/19 13:04:25;;;;;;;4.63;0.70;;;16.00;99.90;;;;;;4944420;28;20063;-71
2022/09/19 13:06:59;;;;;;;5.20;0.40;;;16.10;99.90;;;;;;4974406;28;20047;-71
2022/09/19 13:09:34;;;;;;;5.03;1.02;;;16.00;99.90;;;;;;4978216;28;20043;-72
2022/09/19 13:12:24;;;;;;;3.78;0.52;;;16.00;99.90;;;;;;4977299;28;20062;-75
2022/09/19 13:14:58;;;;;;;4.93;0.77;;;16.10;99.90;;;;;;4978762;28;20125;-70
2022/09/19 13:23:31;;;;;;;6.47;0.80;;;16.10;99.90;;;;;;4978092;28;20134;-73
2022/09/19 13:25:57;;;;;;;5.90;0.70;;;16.10;99.90;;;;;;4978272;28;20045;-71
2022/09/19 13:28:34;;;;;;;6.80;0.82;;;16.20;99.90;;;;;;4978744;28;20045;-73
2022/09/19 13:31:12;;;;;;;6.05;0.60;;;16.30;99.90;;;;;;4976959;28;20108;-73
2022/09/19 13:33:58;;;;;;;7.57;1.23;;;16.30;99.90;;;;;;4977688;28;20057;-68
2022/09/19 13:36:24;;;;;;;6.43;1.15;;;16.30;99.90;;;;;;4976820;28;20059;-71
2022/09/19 13:39:03;;;;;;;7.05;0.85;;;16.30;99.90;;;;;;4976866;28;20058;-71
2022/09/19 13:41:55;;;;;;;6.22;0.80;;;16.30;99.90;;;;;;4977450;28;20051;-70
2022/09/19 13:44:28;;;;;;;6.18;0.85;;;16.00;99.90;;;;;;4961571;28;20054;-69
2022/09/19 13:46:58;;;;;;;7.25;0.90;;;15.90;99.90;;;;;;4977879;28;20101;-71